Time;durP1;ratioP1;P1;durP2;ratioP2;P2;SDS_P1;SDS_P2;PMS_P1;PMS_P2;Temp;Humidity;BMP_temperature;BMP_pressure;BME280_temperature;BME280_humidity;BME280_pressure;Samples;Min_cycle;Max_cycle;Signal;HPM_P1;HPM_P2
2021/09/14 00:00:47;;;;;;;7.07;6.57;;;15.80;99.90;;;16.67;89.36;97884.00;5190467;28;20221;-64
2021/09/14 00:03:21;;;;;;;6.57;6.03;;;15.80;99.90;;;16.66;89.43;97877.13;5181152;28;20199;-64
2021/09/14 00:05:55;;;;;;;7.10;6.50;;;15.90;99.90;;;16.67;90.44;97878.84;5195350;28;20285;-64
2021/09/14 00:08:29;;;;;;;6.80;6.30;;;15.90;99.90;;;16.70;89.53;97877.22;5176733;28;20555;-63
2021/09/14 00:11:02;;;;;;;6.80;6.22;;;15.90;99.90;;;16.70;89.28;97870.34;5186210;28;20214;-65
2021/09/14 00:13:35;;;;;;;7.95;7.13;;;15.90;99.90;;;16.71;89.17;97884.13;5197779;28;20198;-63
2021/09/14 00:16:08;;;;;;;7.00;6.50;;;15.80;99.90;;;16.69;89.84;97871.19;5192674;28;20723;-63
2021/09/14 00:18:42;;;;;;;7.55;6.85;;;15.80;99.90;;;16.71;89.06;97874.69;5183717;28;20202;-64
2021/09/14 00:21:16;;;;;;;7.22;6.60;;;15.80;99.90;;;16.70;89.94;97869.47;5203208;28;20225;-63
2021/09/14 00:23:49;;;;;;;7.68;6.97;;;15.80;99.90;;;16.67;89.25;97868.53;5200345;28;20584;-64
2021/09/14 00:26:22;;;;;;;7.00;6.50;;;15.80;99.90;;;16.63;89.11;97871.84;5167429;28;20667;-61
2021/09/14 00:28:55;;;;;;;7.40;6.75;;;15.80;99.90;;;16.56;88.90;97862.13;5195017;28;20202;-64
2021/09/14 00:31:28;;;;;;;7.65;6.95;;;15.70;99.90;;;16.58;88.76;97860.50;5206870;28;20218;-64
2021/09/14 00:34:03;;;;;;;7.45;6.90;;;15.70;99.90;;;16.59;88.74;97859.66;5190000;28;20215;-63
2021/09/14 00:36:36;;;;;;;7.88;7.28;;;15.70;99.90;;;16.57;89.39;97861.31;5189970;28;20189;-66
2021/09/14 00:39:09;;;;;;;7.03;6.40;;;15.70;99.90;;;16.55;89.73;97857.81;5188278;28;20190;-64
2021/09/14 00:41:42;;;;;;;7.72;7.13;;;15.70;99.90;;;16.49;89.45;97857.59;5201384;28;20236;-64
2021/09/14 00:44:15;;;;;;;7.85;7.20;;;15.70;99.90;;;16.51;89.37;97853.38;5194582;28;20232;-65
2021/09/14 00:46:48;;;;;;;8.57;7.88;;;15.70;99.90;;;16.55;89.36;97860.38;5197104;28;20202;-64
2021/09/14 00:49:22;;;;;;;7.88;7.18;;;15.70;99.90;;;16.57;89.81;97851.00;5183589;28;20199;-65
2021/09/14 00:51:55;;;;;;;8.18;7.57;;;15.80;99.90;;;16.59;89.17;97848.47;5197835;28;20198;-65
2021/09/14 00:54:28;;;;;;;9.10;8.30;;;15.80;99.90;;;16.59;89.68;97846.75;5188092;28;20184;-64
2021/09/14 00:57:01;;;;;;;8.35;7.75;;;15.80;99.90;;;16.60;89.54;97848.53;5169981;28;20596;-64
2021/09/14 00:59:34;;;;;;;7.78;7.18;;;15.80;99.90;;;16.60;89.22;97845.06;5193278;28;20212;-64
2021/09/14 01:02:07;;;;;;;8.52;7.93;;;15.80;99.90;;;16.58;89.02;97836.41;5189600;28;20217;-64
2021/09/14 01:04:42;;;;;;;8.23;7.60;;;15.70;99.90;;;16.62;89.81;97841.69;5181216;28;20593;-64
2021/09/14 01:07:15;;;;;;;7.88;7.18;;;15.80;99.90;;;16.55;89.33;97842.31;5174521;28;20203;-64
2021/09/14 01:09:48;;;;;;;8.38;7.60;;;15.80;99.90;;;16.59;89.63;97844.16;5194943;28;20309;-64
2021/09/14 01:12:22;;;;;;;8.23;7.53;;;15.80;99.90;;;16.64;89.79;97839.16;5180345;28;20198;-64
2021/09/14 01:14:57;;;;;;;8.15;7.55;;;15.80;99.90;;;16.62;89.99;97845.97;5190886;28;20216;-63
2021/09/14 01:17:31;;;;;;;8.63;7.95;;;15.80;99.90;;;16.61;90.38;97847.69;5198649;28;20284;-64
2021/09/14 01:20:07;;;;;;;8.55;7.85;;;15.90;99.90;;;16.61;89.73;97839.94;5192220;28;20312;-64
2021/09/14 01:22:41;;;;;;;7.82;7.22;;;15.80;99.90;;;16.61;90.09;97841.66;5181509;28;20205;-64
2021/09/14 01:25:18;;;;;;;8.57;7.82;;;15.80;99.90;;;16.64;90.77;97840.03;5197890;28;20222;-64
2021/09/14 01:27:52;;;;;;;8.90;8.20;;;15.80;99.90;;;16.61;90.59;97842.53;5181662;28;20191;-64
2021/09/14 01:30:25;;;;;;;8.13;7.53;;;15.80;99.90;;;16.65;90.59;97838.34;5183973;28;20214;-64
2021/09/14 01:32:58;;;;;;;7.93;7.32;;;15.80;99.90;;;16.65;89.54;97849.56;5189312;28;20197;-64
2021/09/14 01:35:32;;;;;;;7.97;7.18;;;15.80;99.90;;;16.65;90.54;97838.34;5191840;28;20207;-64
2021/09/14 01:38:06;;;;;;;8.43;7.80;;;15.80;99.90;;;16.68;91.26;97838.44;5179170;28;20211;-64
2021/09/14 01:40:40;;;;;;;7.95;7.35;;;15.90;99.90;;;16.69;90.53;97837.63;5197816;28;20214;-64
2021/09/14 01:43:13;;;;;;;8.15;7.45;;;15.90;99.90;;;16.70;89.48;97841.94;5170008;28;20199;-65
2021/09/14 01:45:46;;;;;;;7.85;7.15;;;15.90;99.90;;;16.67;89.52;97832.41;5201811;28;20222;-64
2021/09/14 01:48:19;;;;;;;7.93;7.32;;;15.80;99.90;;;16.70;89.52;97833.34;5166658;28;20622;-65
2021/09/14 01:50:52;;;;;;;8.73;7.93;;;15.80;99.90;;;16.68;89.70;97835.84;5188564;28;20697;-64
2021/09/14 01:53:27;;;;;;;8.07;7.38;;;15.90;99.90;;;16.63;89.25;97842.59;5171372;28;20282;-65
2021/09/14 01:56:03;;;;;;;8.48;7.78;;;15.70;99.90;;;16.58;90.12;97836.41;5195607;28;20196;-63
2021/09/14 01:58:36;;;;;;;8.18;7.50;;;15.80;99.90;;;16.52;90.03;97834.50;5181739;28;20297;-62
2021/09/14 02:01:14;;;;;;;7.63;7.03;;;15.70;99.90;;;16.54;89.74;97835.44;5199985;28;20213;-64
2021/09/14 02:03:54;;;;;;;8.32;7.68;;;15.70;99.90;;;16.55;89.95;97837.16;5171230;28;20206;-64
2021/09/14 02:06:48;;;;;;;8.55;7.85;;;15.70;99.90;;;16.58;89.78;97831.22;5195241;28;20209;-64
2021/09/14 02:38:26;;;;;;;9.35;8.55;;;15.40;99.90;;;16.11;90.22;97823.66;5147518;28;20195;-59
2021/09/14 02:41:17;;;;;;;8.98;8.18;;;15.30;99.90;;;16.12;90.85;97819.38;5187646;28;20214;-56
2021/09/14 02:44:05;;;;;;;9.00;8.23;;;15.30;99.90;;;16.14;90.85;97834.06;5186811;28;20575;-57
2021/09/14 03:01:08;;;;;;;8.63;7.93;;;15.20;99.90;;;16.04;91.33;97813.06;5186990;28;20219;-57
2021/09/14 03:03:46;;;;;;;8.93;8.23;;;15.20;99.90;;;16.08;91.15;97813.22;5187588;28;20293;-58
2021/09/14 03:06:19;;;;;;;9.05;8.35;;;15.20;99.90;;;16.05;91.34;97807.94;5187162;28;20723;-56
2021/09/14 03:08:53;;;;;;;8.73;8.02;;;15.20;99.90;;;16.02;91.32;97804.38;5187413;28;20201;-58
2021/09/14 03:11:26;;;;;;;9.20;8.55;;;15.20;99.90;;;16.04;92.15;97808.78;5186844;28;20600;-58
2021/09/14 03:13:59;;;;;;;8.82;8.02;;;15.20;99.90;;;15.98;91.88;97800.84;5185739;28;20569;-55
2021/09/14 03:16:34;;;;;;;8.90;8.20;;;15.20;99.90;;;15.96;91.70;97807.63;5187466;28;20202;-58
2021/09/14 03:19:07;;;;;;;8.80;8.10;;;15.20;99.90;;;15.96;91.64;97813.66;5186701;28;20205;-57
2021/09/14 03:21:40;;;;;;;9.13;8.43;;;15.20;99.90;;;15.97;91.53;97817.13;5186238;28;20230;-57
2021/09/14 03:24:13;;;;;;;8.68;8.07;;;15.10;99.90;;;15.97;91.22;97805.13;5186860;28;20195;-58
2021/09/14 03:26:46;;;;;;;8.63;7.93;;;15.10;99.90;;;15.92;91.26;97816.97;5187995;28;20227;-58
2021/09/14 03:29:20;;;;;;;8.55;7.85;;;15.00;99.90;;;15.94;90.37;97820.47;5186417;28;20203;-59
2021/09/14 03:31:54;;;;;;;7.47;6.97;;;15.00;99.90;;;15.89;89.82;97811.69;5185523;28;20228;-57
2021/09/14 03:34:27;;;;;;;7.78;7.18;;;15.00;99.90;;;15.87;90.03;97812.47;5185371;28;20202;-58
2021/09/14 03:37:00;;;;;;;7.70;6.90;;;15.00;99.90;;;15.84;89.81;97807.22;5186206;28;20277;-57
2021/09/14 03:39:33;;;;;;;7.40;6.90;;;14.90;99.90;;;15.79;90.19;97809.59;5186051;28;20210;-58
2021/09/14 03:42:07;;;;;;;9.90;7.43;;;14.90;99.90;;;15.77;89.92;97812.16;5186358;28;20218;-58
2021/09/14 03:44:40;;;;;;;8.20;7.60;;;14.90;99.90;;;15.75;89.66;97808.63;5186449;28;20582;-59
2021/09/14 03:47:16;;;;;;;8.93;8.13;;;14.80;99.90;;;15.73;90.54;97810.25;5185480;28;20221;-58
2021/09/14 03:49:49;;;;;;;8.13;7.53;;;14.90;99.90;;;15.70;91.07;97811.84;5187290;28;20208;-57
2021/09/14 03:52:22;;;;;;;8.73;7.88;;;14.80;99.90;;;15.67;91.12;97806.56;5185894;28;20321;-58
2021/09/14 03:54:55;;;;;;;7.72;7.20;;;14.80;99.90;;;15.63;91.14;97818.47;5183553;28;20305;-55
2021/09/14 03:57:28;;;;;;;8.75;8.15;;;14.80;99.90;;;15.62;90.91;97810.66;5182903;28;20607;-58
2021/09/14 04:00:02;;;;;;;8.18;7.43;;;14.80;99.90;;;15.59;90.85;97811.44;5185820;28;20727;-57
2021/09/14 04:02:39;;;;;;;7.78;7.07;;;14.70;99.90;;;15.58;90.71;97813.97;5180634;28;20205;-57
2021/09/14 04:05:33;;;;;;;7.88;7.28;;;14.70;99.90;;;15.58;90.29;97820.00;5185686;28;20203;-57
2021/09/14 04:10:58;;;;;;;7.82;7.13;;;14.70;99.90;;;15.53;89.86;97812.09;5185719;28;20228;-58
2021/09/14 04:13:31;;;;;;;7.57;6.97;;;14.60;99.90;;;15.47;89.97;97811.00;5182243;28;20202;-58
2021/09/14 04:16:04;;;;;;;7.40;6.80;;;14.50;99.90;;;15.40;89.41;97804.75;5180537;28;20980;-57
2021/09/14 04:18:39;;;;;;;7.40;6.80;;;14.50;99.90;;;15.33;89.58;97807.88;5186234;28;20209;-58
2021/09/14 04:21:12;;;;;;;7.47;6.97;;;14.40;99.90;;;15.30;90.09;97808.66;5183505;28;20280;-59
2021/09/14 04:23:45;;;;;;;8.38;7.78;;;14.40;99.90;;;15.32;90.74;97807.03;5184361;28;20195;-58
2021/09/14 04:26:19;;;;;;;8.63;7.93;;;14.50;99.90;;;15.32;91.22;97807.03;5185198;28;20227;-59
2021/09/14 04:28:52;;;;;;;9.48;8.68;;;14.50;99.90;;;15.33;91.81;97803.63;5184965;28;20654;-57
2021/09/14 04:31:25;;;;;;;9.38;8.57;;;14.60;99.90;;;15.37;91.93;97808.91;5185425;28;20305;-58
2021/09/14 04:33:59;;;;;;;9.45;8.70;;;14.60;99.90;;;15.39;92.00;97802.09;5182515;28;20205;-57
2021/09/14 04:36:32;;;;;;;10.32;9.43;;;14.60;99.90;;;15.40;93.07;97806.44;5178264;28;20280;-56
2021/09/14 04:39:05;;;;;;;9.18;8.48;;;14.60;99.90;;;15.39;93.03;97807.25;5185880;28;20201;-56
2021/09/14 04:41:38;;;;;;;8.57;7.93;;;14.60;99.90;;;15.43;92.81;97809.13;5185629;28;20229;-58
2021/09/14 04:44:11;;;;;;;8.65;7.90;;;14.60;99.90;;;15.43;92.32;97806.56;5184806;28;20201;-58
2021/09/14 04:46:44;;;;;;;8.73;8.02;;;14.60;99.90;;;15.39;91.92;97814.97;5184600;28;20223;-56
2021/09/14 04:49:19;;;;;;;8.93;8.32;;;14.50;99.90;;;15.41;91.92;97815.91;5180160;28;20209;-55
2021/09/14 04:51:52;;;;;;;8.57;7.85;;;14.60;99.90;;;15.42;92.46;97815.09;5185152;28;20305;-58
2021/09/14 04:54:25;;;;;;;9.65;8.88;;;14.70;99.90;;;15.47;92.71;97803.25;5178837;28;20233;-58
2021/09/14 04:56:58;;;;;;;9.88;9.05;;;14.70;99.90;;;15.47;93.83;97801.56;5184089;28;20201;-59
2021/09/14 04:59:32;;;;;;;9.40;8.63;;;14.70;99.90;;;15.51;93.03;97807.72;5180307;28;20673;-57
2021/09/14 05:02:05;;;;;;;10.00;9.30;;;14.70;99.90;;;15.50;92.76;97805.94;5182089;28;21065;-58
2021/09/14 05:04:39;;;;;;;10.25;9.45;;;14.70;99.90;;;15.50;92.56;97806.81;5183425;28;20578;-58
2021/09/14 05:07:12;;;;;;;9.30;8.57;;;14.70;99.90;;;15.51;92.54;97810.31;5182195;28;20229;-58
2021/09/14 05:09:45;;;;;;;9.48;8.77;;;14.70;99.90;;;15.50;92.51;97796.50;5181260;28;20202;-59
2021/09/14 05:12:18;;;;;;;9.90;9.10;;;14.70;99.90;;;15.49;92.70;97804.19;5182510;28;20220;-57
2021/09/14 05:14:51;;;;;;;9.32;8.60;;;14.70;99.90;;;15.51;92.34;97807.72;5184344;28;20199;-58
2021/09/14 05:17:24;;;;;;;9.18;8.38;;;14.70;99.90;;;15.46;92.24;97802.38;5184641;28;20201;-57
2021/09/14 05:20:00;;;;;;;7.97;7.38;;;14.70;99.90;;;15.51;91.55;97807.72;5180031;28;20575;-58
2021/09/14 05:22:34;;;;;;;8.90;8.20;;;14.60;99.90;;;15.52;90.79;97796.59;5178957;28;20210;-57
2021/09/14 05:25:09;;;;;;;8.65;8.00;;;14.70;99.90;;;15.58;90.74;97804.53;5180727;28;20292;-59
2021/09/14 05:27:43;;;;;;;8.65;8.05;;;14.70;99.90;;;15.59;90.73;97806.28;5182986;28;20222;-60
2021/09/14 05:30:16;;;;;;;9.07;8.38;;;14.70;99.90;;;15.60;90.58;97810.63;5183621;28;20197;-56
2021/09/14 05:32:49;;;;;;;8.75;8.13;;;14.70;99.90;;;15.62;91.22;97806.38;5179896;28;20198;-60
2021/09/14 05:35:32;;;;;;;8.38;7.78;;;14.80;99.90;;;15.73;91.18;97802.53;5179481;28;20198;-58
2021/09/14 05:38:05;;;;;;;9.13;8.43;;;14.90;99.90;;;15.84;90.34;97809.78;5175283;28;20201;-55
2021/09/14 05:40:38;;;;;;;8.88;8.18;;;15.00;99.90;;;15.94;89.67;97809.31;5180708;28;20614;-56
2021/09/14 05:43:11;;;;;;;8.98;8.27;;;15.10;99.90;;;16.01;89.48;97807.81;5183976;28;20194;-55
2021/09/14 05:45:44;;;;;;;9.38;8.50;;;15.10;99.90;;;16.12;89.36;97812.50;5183052;28;20203;-58
2021/09/14 05:48:18;;;;;;;9.25;8.45;;;15.20;99.90;;;16.36;89.20;97809.88;5184350;28;20214;-57
2021/09/14 05:50:53;;;;;;;9.95;9.15;;;15.40;99.90;;;16.58;87.71;97806.31;5184926;28;20222;-59
2021/09/14 05:53:26;;;;;;;8.50;7.80;;;15.60;99.90;;;16.84;86.92;97812.31;5177265;28;20208;-56
2021/09/14 05:55:59;;;;;;;9.40;8.60;;;15.80;99.90;;;16.86;86.09;97809.81;5181140;28;20195;-60
2021/09/14 05:58:32;;;;;;;9.82;9.02;;;15.90;99.90;;;16.84;86.42;97803.72;5183872;28;20249;-57
2021/09/14 06:01:05;;;;;;;13.57;12.38;;;15.90;99.90;;;16.83;86.92;97807.13;5183648;28;20214;-60
2021/09/14 06:03:38;;;;;;;11.43;10.48;;;15.90;99.90;;;16.82;86.08;97803.66;5182858;28;20245;-59
2021/09/14 06:06:13;;;;;;;10.45;9.60;;;15.90;99.90;;;16.84;86.35;97803.72;5182990;28;20206;-59
2021/09/14 06:08:46;;;;;;;10.30;9.48;;;15.90;99.90;;;16.80;86.02;97805.31;5182604;28;20204;-56
2021/09/14 06:11:19;;;;;;;10.15;9.35;;;15.90;99.90;;;16.89;86.38;97807.31;5179428;28;20219;-59
2021/09/14 06:13:52;;;;;;;11.00;10.00;;;15.90;99.90;;;17.05;85.98;97813.81;5181929;28;20582;-57
2021/09/14 06:16:25;;;;;;;11.02;10.13;;;16.10;99.90;;;17.24;85.37;97817.84;5179493;28;20644;-59
2021/09/14 06:18:58;;;;;;;9.90;9.10;;;16.20;99.90;;;17.66;82.75;97815.66;5176246;28;20194;-58
2021/09/14 06:21:37;;;;;;;10.48;9.48;;;16.40;99.90;;;17.90;80.77;97815.47;5177639;28;20260;-59
2021/09/14 06:24:10;;;;;;;10.23;9.32;;;16.60;99.90;;;18.02;80.07;97810.63;5183185;28;20289;-58
2021/09/14 06:26:43;;;;;;;9.70;8.80;;;16.60;99.90;;;18.13;80.73;97817.81;5179899;28;20203;-60
2021/09/14 06:29:16;;;;;;;9.95;8.43;;;16.80;99.90;;;18.21;79.55;97816.31;5182102;28;20568;-58
2021/09/14 06:31:49;;;;;;;9.73;8.93;;;17.00;99.90;;;18.11;80.70;97816.88;5183965;28;20241;-56
2021/09/14 06:34:22;;;;;;;9.02;8.23;;;17.00;99.90;;;17.93;81.19;97822.44;5184054;28;20293;-58
2021/09/14 06:36:56;;;;;;;10.85;9.93;;;16.80;99.90;;;17.87;81.07;97830.03;5182595;28;20197;-59
2021/09/14 06:39:29;;;;;;;10.05;9.20;;;16.80;99.90;;;17.83;80.30;97826.50;5183430;28;20220;-58
2021/09/14 06:42:03;;;;;;;9.77;8.98;;;16.80;99.90;;;18.02;80.52;97826.16;5181440;28;20720;-58
2021/09/14 06:44:36;;;;;;;9.32;8.55;;;16.90;99.90;;;18.63;79.38;97826.88;5180362;28;20195;-59
2021/09/14 06:47:09;;;;;;;10.02;9.32;;;17.30;99.90;;;19.27;77.04;97832.72;5181521;28;20227;-57
2021/09/14 06:49:42;;;;;;;9.20;8.40;;;17.80;99.90;;;19.83;74.33;97828.72;5185547;28;20195;-57
2021/09/14 06:52:18;;;;;;;9.32;8.52;;;18.10;99.90;;;20.07;72.11;97833.53;5187450;28;20260;-60
2021/09/14 06:54:51;;;;;;;8.98;8.23;;;18.40;99.90;;;20.31;72.14;97838.31;5186536;28;20687;-57
2021/09/14 06:57:24;;;;;;;9.15;8.38;;;18.50;99.90;;;21.04;69.16;97830.91;5184311;28;20216;-59
2021/09/14 06:59:57;;;;;;;8.75;7.95;;;19.10;99.90;;;21.34;67.44;97835.69;5185185;28;20190;-59
2021/09/14 07:02:30;;;;;;;9.02;8.23;;;19.20;99.90;;;21.96;65.78;97825.22;5185453;28;20222;-60
2021/09/14 07:05:10;;;;;;;8.50;7.80;;;19.60;99.90;;;22.34;63.95;97826.53;5186647;28;20233;-59
2021/09/14 07:07:44;;;;;;;8.30;7.65;;;19.90;99.90;;;22.46;63.36;97822.31;5183507;28;20226;-59
2021/09/14 07:10:17;;;;;;;8.85;8.05;;;20.20;99.90;;;22.70;62.75;97826.00;5184488;28;20198;-60
2021/09/14 07:12:50;;;;;;;8.77;8.00;;;20.50;99.90;;;22.68;62.61;97822.50;5185104;28;20585;-58
2021/09/14 07:15:23;;;;;;;8.60;7.90;;;20.80;99.90;;;22.59;62.97;97817.22;5186068;28;20205;-59
2021/09/14 07:17:57;;;;;;;8.57;7.78;;;20.80;99.90;;;22.39;63.50;97817.91;5173602;28;20570;-60
2021/09/14 07:20:30;;;;;;;8.52;7.78;;;21.00;99.90;;;22.48;63.24;97815.38;5179479;28;20754;-59
2021/09/14 07:23:04;;;;;;;8.27;7.57;;;21.00;99.90;;;22.72;62.24;97811.25;5186486;28;20195;-58
2021/09/14 07:25:41;;;;;;;8.57;7.88;;;21.30;99.90;;;22.58;62.19;97810.28;5186213;28;20194;-58
2021/09/14 07:28:14;;;;;;;8.52;7.68;;;21.40;99.90;;;22.63;62.35;97813.75;5185387;28;20302;-60
2021/09/14 07:30:47;;;;;;;7.70;6.95;;;21.50;99.90;;;22.88;62.72;97814.84;5178573;28;20234;-60
2021/09/14 07:33:20;;;;;;;8.15;7.35;;;21.60;99.90;;;22.94;61.82;97805.31;5185227;28;20587;-57
2021/09/14 07:35:53;;;;;;;7.75;7.10;;;21.80;99.90;;;23.03;61.38;97809.75;5184377;28;20206;-59
2021/09/14 07:38:28;;;;;;;7.95;7.25;;;21.90;99.90;;;23.19;60.69;97800.31;5186580;28;20199;-60
2021/09/14 07:41:01;;;;;;;8.25;7.47;;;22.10;99.90;;;23.18;60.95;97798.59;5183087;28;20229;-59
2021/09/14 07:43:34;;;;;;;7.22;6.60;;;22.10;99.90;;;23.38;60.50;97798.69;5185390;28;20202;-60
2021/09/14 07:46:09;;;;;;;7.47;6.88;;;22.20;99.90;;;23.50;60.54;97801.34;5185734;28;20194;-60
2021/09/14 07:48:42;;;;;;;8.55;6.35;;;22.50;99.90;;;23.57;60.59;97799.63;5185475;28;20225;-60
2021/09/14 07:51:15;;;;;;;7.07;6.50;;;22.60;99.90;;;23.74;60.19;97794.53;5186471;28;20301;-58
2021/09/14 07:53:54;;;;;;;7.53;6.85;;;22.80;99.90;;;23.81;60.05;97802.41;5186860;28;20220;-60
2021/09/14 07:56:28;;;;;;;7.57;6.97;;;22.80;99.90;;;23.90;59.88;97801.56;5185707;28;20533;-60
2021/09/14 07:59:02;;;;;;;7.15;6.53;;;22.90;99.90;;;23.93;60.41;97803.31;5185392;28;20285;-58
2021/09/14 08:01:35;;;;;;;7.57;6.88;;;22.90;99.90;;;24.15;59.63;97807.72;5184647;28;20228;-59
2021/09/14 08:04:08;;;;;;;7.93;7.25;;;23.10;99.90;;;24.44;59.44;97801.72;5177068;28;20285;-60
2021/09/14 08:06:41;;;;;;;7.30;6.70;;;23.40;99.90;;;24.54;59.21;97808.66;5186586;28;20191;-59
2021/09/14 08:09:16;;;;;;;7.38;6.78;;;23.50;99.90;;;24.68;59.12;97808.69;5185315;28;20219;-60
2021/09/14 08:11:49;;;;;;;7.57;6.97;;;23.80;99.90;;;24.93;58.06;97804.31;5184458;28;20689;-59
2021/09/14 08:14:22;;;;;;;7.25;6.75;;;24.10;99.90;;;25.15;57.41;97806.06;5184625;28;20216;-60
2021/09/14 08:16:55;;;;;;;8.05;6.85;;;24.20;99.90;;;25.31;56.05;97803.41;5181458;28;20203;-60
2021/09/14 08:19:28;;;;;;;7.15;6.50;;;24.40;99.90;;;25.45;56.26;97804.25;5180368;28;20201;-61
2021/09/14 08:22:01;;;;;;;7.50;6.78;;;24.50;99.90;;;25.70;55.14;97801.56;5187489;28;20234;-63
2021/09/14 08:24:35;;;;;;;7.15;6.57;;;24.70;99.90;;;25.81;55.30;97807.59;5186508;28;20205;-63
2021/09/14 08:27:08;;;;;;;7.50;6.80;;;24.90;99.90;;;25.93;54.57;97810.22;5189247;28;20204;-63
2021/09/14 08:29:41;;;;;;;6.95;6.30;;;25.10;99.90;;;26.05;54.57;97815.38;5188304;28;20689;-63
2021/09/14 08:32:14;;;;;;;6.93;6.43;;;25.20;99.90;;;25.95;54.49;97805.81;5184815;28;20217;-63
2021/09/14 08:34:47;;;;;;;6.32;5.93;;;25.10;99.90;;;26.02;54.21;97812.78;5185240;28;20206;-61
2021/09/14 08:37:21;;;;;;;6.40;5.80;;;25.20;99.90;;;26.13;53.27;97811.84;5188048;28;20205;-63
2021/09/14 08:39:55;;;;;;;7.10;6.60;;;25.30;99.90;;;26.03;54.54;97817.13;5189475;28;20198;-63
2021/09/14 08:42:31;;;;;;;6.70;6.10;;;25.30;99.90;;;26.43;53.33;97818.63;5185446;28;20228;-63
2021/09/14 08:45:06;;;;;;;7.13;6.53;;;25.60;99.90;;;26.62;51.94;97824.66;5186174;28;20198;-63
2021/09/14 08:47:40;;;;;;;6.65;6.13;;;25.80;99.90;;;26.76;52.14;97821.94;5189289;28;20639;-63
2021/09/14 08:50:13;;;;;;;6.78;6.18;;;25.90;99.90;;;26.94;51.60;97812.16;5185904;28;20200;-63
2021/09/14 08:52:46;;;;;;;6.40;5.90;;;26.10;99.90;;;27.04;50.82;97817.31;5187274;28;20202;-63
2021/09/14 08:55:21;;;;;;;6.95;6.35;;;26.30;99.80;;;27.11;50.39;97808.50;5186618;28;20208;-62
2021/09/14 08:57:55;;;;;;;6.35;5.55;;;26.40;99.70;;;27.17;50.08;97805.84;5184297;28;20198;-63
2021/09/14 09:00:32;;;;;;;7.43;6.82;;;26.40;99.40;;;27.35;52.45;97807.41;5187675;28;20214;-63
2021/09/14 09:03:07;;;;;;;5.80;5.30;;;26.60;99.90;;;27.53;50.40;97812.47;5183518;28;20203;-62
2021/09/14 09:05:42;;;;;;;5.97;5.40;;;26.80;99.00;;;27.70;48.97;97804.41;5187177;28;20225;-62
2021/09/14 09:08:20;;;;;;;6.00;5.60;;;27.00;98.70;;;27.75;49.24;97813.06;5188217;28;20248;-63
2021/09/14 09:11:05;;;;;;;5.93;5.43;;;27.00;99.00;;;27.87;48.83;97800.69;5186923;28;20309;-61
2021/09/14 09:13:50;;;;;;;5.80;5.40;;;27.00;98.80;;;27.90;49.44;97804.19;5188264;28;20281;-62
2021/09/14 09:16:26;;;;;;;6.30;5.80;;;27.10;98.70;;;27.83;48.72;97795.47;5188790;28;20226;-63
2021/09/14 09:19:01;;;;;;;6.80;6.20;;;27.10;98.40;;;27.94;48.51;97794.50;5189495;28;20196;-63
2021/09/14 09:21:37;;;;;;;5.13;4.78;;;27.30;98.20;;;28.05;49.32;97800.47;5184417;28;20607;-63
2021/09/14 09:24:14;;;;;;;5.80;5.40;;;27.40;98.40;;;28.20;48.01;97792.34;5186474;28;20223;-63
2021/09/14 09:26:48;;;;;;;5.93;5.43;;;27.60;97.70;;;28.29;47.78;97794.84;5189089;28;20204;-63
2021/09/14 09:29:25;;;;;;;6.40;5.75;;;27.60;97.80;;;28.36;48.05;97794.75;5188203;28;20227;-62
2021/09/14 09:31:59;;;;;;;5.22;4.82;;;27.60;97.50;;;28.28;48.71;97798.38;5183721;28;20224;-62
2021/09/14 09:34:32;;;;;;;5.75;5.18;;;27.60;97.60;;;28.41;48.09;97795.56;5185805;28;20313;-63
2021/09/14 09:37:07;;;;;;;5.85;5.45;;;27.80;97.40;;;28.55;47.12;97793.63;5187297;28;20280;-63
2021/09/14 09:39:45;;;;;;;6.03;5.60;;;27.90;96.80;;;28.52;47.92;97796.28;5186808;28;20288;-63
2021/09/14 09:42:21;;;;;;;5.53;5.13;;;27.80;97.70;;;28.18;48.30;97791.50;5188822;28;20304;-63
2021/09/14 09:44:57;;;;;;;5.60;5.10;;;27.50;98.00;;;28.37;48.52;97796.50;5187573;28;20229;-63
2021/09/14 09:47:30;;;;;;;6.00;5.45;;;27.70;97.70;;;28.67;47.26;97790.81;5188228;28;20916;-63
2021/09/14 09:50:04;;;;;;;5.63;5.18;;;28.00;96.70;;;28.61;46.21;97784.75;5185713;28;20222;-63
2021/09/14 09:52:37;;;;;;;5.50;5.10;;;27.90;96.50;;;28.66;46.38;97785.56;5186792;28;20298;-61
2021/09/14 09:55:11;;;;;;;5.30;4.90;;;28.00;96.10;;;28.70;45.93;97785.50;5184533;28;20615;-63
2021/09/14 09:57:48;;;;;;;4.70;4.40;;;28.10;95.60;;;28.87;44.34;97786.94;5187046;28;20682;-63
2021/09/14 10:00:21;;;;;;;5.43;4.93;;;28.30;94.70;;;28.92;44.09;97793.88;5183298;28;20217;-61
2021/09/14 10:03:01;;;;;;;5.50;4.80;;;28.20;94.60;;;28.98;44.80;97788.50;5182453;28;20209;-63
2021/09/14 10:05:38;;;;;;;4.97;4.50;;;28.30;94.90;;;28.97;43.61;97784.13;5185830;28;20215;-62
2021/09/14 10:08:15;;;;;;;4.97;4.68;;;28.10;94.50;;;29.04;45.10;97782.28;5187102;28;20200;-63
2021/09/14 10:10:55;;;;;;;5.13;4.72;;;28.20;95.30;;;29.15;45.31;97782.97;5187328;28;20221;-62
2021/09/14 10:13:34;;;;;;;4.70;4.40;;;28.50;95.00;;;29.24;43.43;97783.69;5186007;28;20588;-64
2021/09/14 10:16:09;;;;;;;4.80;4.50;;;28.50;94.10;;;29.35;42.49;97785.22;5185831;28;20637;-61
2021/09/14 10:18:42;;;;;;;5.18;4.70;;;28.50;93.70;;;29.29;42.71;97779.22;5182942;28;20213;-61
2021/09/14 10:21:20;;;;;;;4.97;4.57;;;28.40;93.60;;;29.23;43.93;97769.66;5181458;28;20599;-64
2021/09/14 10:23:55;;;;;;;5.50;5.00;;;28.40;94.30;;;29.39;41.97;97770.25;5183317;28;20577;-61
2021/09/14 10:26:34;;;;;;;5.30;4.80;;;28.50;93.20;;;29.29;42.32;97772.16;5184943;28;20194;-64
2021/09/14 10:29:18;;;;;;;5.57;5.18;;;28.50;93.20;;;29.23;43.41;97776.69;5186236;28;20218;-65
2021/09/14 10:32:01;;;;;;;5.07;4.68;;;28.30;94.00;;;29.16;43.05;97771.56;5182196;28;20230;-65
2021/09/14 10:34:39;;;;;;;5.57;5.13;;;28.30;93.90;;;29.09;43.63;97772.53;5184685;28;20196;-64
2021/09/14 10:37:13;;;;;;;5.38;4.97;;;28.10;94.10;;;28.97;45.00;97770.13;5185401;28;20208;-62
2021/09/14 10:39:46;;;;;;;5.28;4.88;;;28.20;94.90;;;29.14;44.64;97765.44;5185587;28;20301;-64
2021/09/14 10:42:22;;;;;;;5.07;4.70;;;28.10;94.70;;;29.17;43.83;97770.66;5195450;28;20271;-65
2021/09/14 10:45:08;;;;;;;5.18;4.78;;;28.30;94.40;;;29.29;44.12;97763.41;5188838;28;20197;-64
2021/09/14 10:47:48;;;;;;;5.20;4.80;;;28.40;94.20;;;29.37;44.21;97766.75;5186771;28;20233;-65
2021/09/14 10:50:29;;;;;;;5.38;4.95;;;28.50;94.30;;;29.44;44.28;97764.88;5186350;28;20217;-66
2021/09/14 10:53:04;;;;;;;5.38;4.95;;;28.50;94.80;;;29.47;44.36;97768.31;5186191;28;20202;-67
2021/09/14 10:55:39;;;;;;;5.40;5.00;;;28.50;94.70;;;29.60;43.84;97775.06;5186492;28;20589;-64
2021/09/14 10:58:13;;;;;;;5.70;5.20;;;28.60;94.50;;;29.62;43.65;97768.03;5186546;28;20252;-66
2021/09/14 11:00:49;;;;;;;5.38;4.88;;;28.60;94.20;;;29.67;43.95;97775.84;5184521;28;20720;-65
2021/09/14 11:03:23;;;;;;;5.30;4.90;;;28.60;94.60;;;29.68;43.60;97767.03;5186916;28;20696;-65
2021/09/14 11:05:57;;;;;;;5.32;4.93;;;28.60;94.30;;;29.66;43.24;97762.72;5187110;28;20281;-65
2021/09/14 11:08:30;;;;;;;4.95;4.55;;;28.60;94.20;;;29.53;44.15;97762.03;5186051;28;20241;-65
2021/09/14 11:11:04;;;;;;;5.28;4.88;;;28.50;94.50;;;29.55;44.47;97771.66;5176469;28;20285;-65
2021/09/14 11:13:40;;;;;;;5.50;5.00;;;28.50;94.60;;;29.65;44.21;97772.38;5183748;28;20198;-65
2021/09/14 11:16:17;;;;;;;5.57;5.18;;;28.50;94.50;;;29.63;44.48;97764.50;5186832;28;20252;-65
2021/09/14 11:18:51;;;;;;;5.10;4.70;;;28.60;94.70;;;29.68;44.64;97772.31;5186692;28;20554;-64
2021/09/14 11:21:25;;;;;;;4.85;4.55;;;28.60;95.00;;;29.80;44.37;97769.41;5180596;28;20263;-64
2021/09/14 11:23:58;;;;;;;4.75;4.32;;;28.70;94.70;;;29.83;43.41;97763.22;5182266;28;20570;-65
2021/09/14 11:26:32;;;;;;;4.65;4.25;;;28.60;94.40;;;29.77;43.64;97766.00;5180136;28;20693;-62
2021/09/14 11:29:05;;;;;;;4.90;4.50;;;28.60;94.20;;;29.79;43.08;97765.06;5184436;28;20261;-65
2021/09/14 11:31:40;;;;;;;4.65;4.35;;;28.70;93.80;;;29.77;42.54;97764.22;5186209;28;20621;-64
2021/09/14 11:34:20;;;;;;;5.05;4.65;;;28.70;93.40;;;29.65;42.66;97772.38;5185296;28;20202;-64